Impacts TAF Board
For situational awareness. Not to be used for flight planning purposes.
IDs:

KBWI - Baltimore-Washington, MD, US

Issued at 1743 UTC 20 Sep 2018
Updated at 1956 UTC 20 Sep 2018
Potential Impact None Slight Moderate High
Time1954Z 20/20Z 20/21Z 20/22Z 20/23Z 21/00Z 21/01Z 21/02Z 21/03Z 21/04Z 21/05Z 21/06Z 21/07Z 21/08Z>>
Type OBS PRVL PRVL PRVL PRVL PRVL PRVL PRVL PRVL PRVL PRVL PRVL PRVL PRVL
VIS 10 >6 >6 >6 >6 >6 >6 >6 >6 >6 >6 >6 >6 >6
CIG 46 50 50 50 50 50 50 50 50 50 50 30 30 30
Cover BKN BKN BKN BKN BKN BKN BKN BKN BKN BKN BKN BKN BKN BKN
FltCat VFR VFR VFR VFR VFR VFR VFR VFR VFR VFR VFR MVFR MVFR MVFR
WX -- -- -- -- -- -- -- -- -- -- -- -- -- --
WDir 120 120 120 120 120 120 120 120 120 120 120 140 140 140
WSpd 6 7 7 7 7 7 7 7 7 7 7 4 4 4
WGst -- -- -- -- -- -- -- -- -- -- -- -- -- --
Raw TAF
KBWI 201743Z 2018/2124 12007KT P6SM SCT025 BKN050
  FM210600 14004KT P6SM BKN030
  FM211600 17008KT P6SM BKN025
  FM212100 18010KT P6SM SCT040 SCT110


Raw METAR
KBWI 201954Z 12006KT 10SM SCT032 BKN046 27/20 A3015 RMK AO2 SLP209 T02670200
KBWI 201854Z 09008KT 10SM SCT029 BKN046 26/21 A3016 RMK AO2 SLP211 T02610206
KBWI 201754Z 10007KT 10SM SCT025 BKN048 26/21 A3018 RMK AO2 SLP217 T02560206 10261 20211 58007
KBWI 201711Z 11008KT 10SM BKN025 BKN050 26/20 A3018 RMK AO2 T02560200
KBWI 201654Z 11005KT 10SM SCT025 BKN050 26/20 A3018 RMK AO2 SLP219 T02560200
KBWI 201649Z 11004KT 10SM SCT025 BKN050 25/20 A3019 RMK AO2

METAR Board
Radar Display
Forecast Discussion
For situational awareness. Not to be used for flight planning purposes.